sensor_id;sensor_type;location;lat;lon;timestamp;P1;P2;P0
76383;PMS7003;65204;48.606;7.598;2023-07-30T00:00:21;0.00;0.00;0.00
76383;PMS7003;65204;48.606;7.598;2023-07-30T00:00:51;0.75;0.00;0.00
76383;PMS7003;65204;48.606;7.598;2023-07-30T00:01:21;1.00;0.00;0.00
76383;PMS7003;65204;48.606;7.598;2023-07-30T00:01:51;0.00;0.00;0.00
76383;PMS7003;65204;48.606;7.598;2023-07-30T00:02:22;0.00;0.00;0.00
76383;PMS7003;65204;48.606;7.598;2023-07-30T00:02:52;0.00;0.00;0.00
76383;PMS7003;65204;48.606;7.598;2023-07-30T00:03:22;0.00;0.00;0.00
76383;PMS7003;65204;48.606;7.598;2023-07-30T00:03:53;0.00;0.00;0.00
76383;PMS7003;65204;48.606;7.598;2023-07-30T00:04:23;0.00;0.00;0.00
76383;PMS7003;65204;48.606;7.598;2023-07-30T00:04:53;0.00;0.00;0.00
76383;PMS7003;65204;48.606;7.598;2023-07-30T00:05:24;0.00;0.00;0.00
76383;PMS7003;65204;48.606;7.598;2023-07-30T00:05:55;0.00;0.00;0.00
76383;PMS7003;65204;48.606;7.598;2023-07-30T00:06:25;0.00;0.00;0.00
76383;PMS7003;65204;48.606;7.598;2023-07-30T00:06:56;1.00;1.00;0.50
76383;PMS7003;65204;48.606;7.598;2023-07-30T00:07:26;0.00;0.00;0.00
76383;PMS7003;65204;48.606;7.598;2023-07-30T00:07:56;0.00;0.00;0.00
76383;PMS7003;65204;48.606;7.598;2023-07-30T00:08:27;0.00;0.00;0.00
76383;PMS7003;65204;48.606;7.598;2023-07-30T00:08:57;0.00;0.00;0.00
76383;PMS7003;65204;48.606;7.598;2023-07-30T00:09:27;0.00;0.00;0.00
76383;PMS7003;65204;48.606;7.598;2023-07-30T00:09:58;0.00;0.00;0.00
76383;PMS7003;65204;48.606;7.598;2023-07-30T00:10:28;0.00;0.00;0.00
76383;PMS7003;65204;48.606;7.598;2023-07-30T00:10:59;0.00;0.00;0.00
76383;PMS7003;65204;48.606;7.598;2023-07-30T00:11:29;0.00;0.00;0.00
76383;PMS7003;65204;48.606;7.598;2023-07-30T00:11:59;0.00;0.00;0.00
76383;PMS7003;65204;48.606;7.598;2023-07-30T00:12:32;0.00;0.00;0.00
76383;PMS7003;65204;48.606;7.598;2023-07-30T00:13:02;0.00;0.00;0.00
76383;PMS7003;65204;48.606;7.598;2023-07-30T00:13:32;1.00;0.25;0.00
76383;PMS7003;65204;48.606;7.598;2023-07-30T00:14:03;0.00;0.00;0.00
76383;PMS7003;65204;48.606;7.598;2023-07-30T00:14:33;0.00;0.00;0.00
76383;PMS7003;65204;48.606;7.598;2023-07-30T00:15:04;0.00;0.00;0.00
76383;PMS7003;65204;48.606;7.598;2023-07-30T00:15:35;0.00;0.00;0.00
76383;PMS7003;65204;48.606;7.598;2023-07-30T00:16:05;0.00;0.00;0.00
76383;PMS7003;65204;48.606;7.598;2023-07-30T00:16:36;0.00;0.00;0.00
76383;PMS7003;65204;48.606;7.598;2023-07-30T00:17:06;0.50;0.50;0.00
76383;PMS7003;65204;48.606;7.598;2023-07-30T00:17:36;0.00;0.00;0.00
76383;PMS7003;65204;48.606;7.598;2023-07-30T00:18:07;1.00;0.00;0.00
76383;PMS7003;65204;48.606;7.598;2023-07-30T00:18:37;0.00;0.00;0.00
76383;PMS7003;65204;48.606;7.598;2023-07-30T00:19:07;0.00;0.00;0.00
76383;PMS7003;65204;48.606;7.598;2023-07-30T00:19:37;0.00;0.00;0.00
76383;PMS7003;65204;48.606;7.598;2023-07-30T00:20:08;0.25;0.25;0.00
76383;PMS7003;65204;48.606;7.598;2023-07-30T00:20:38;0.00;0.00;0.00
76383;PMS7003;65204;48.606;7.598;2023-07-30T00:21:09;0.00;0.00;0.00
76383;PMS7003;65204;48.606;7.598;2023-07-30T00:21:39;0.00;0.00;0.00
76383;PMS7003;65204;48.606;7.598;2023-07-30T00:22:09;0.00;0.00;0.00
76383;PMS7003;65204;48.606;7.598;2023-07-30T00:22:40;2.00;0.00;0.00
76383;PMS7003;65204;48.606;7.598;2023-07-30T00:23:10;0.00;0.00;0.00
76383;PMS7003;65204;48.606;7.598;2023-07-30T00:23:40;0.50;0.50;0.25
76383;PMS7003;65204;48.606;7.598;2023-07-30T00:24:10;1.75;0.00;0.00
76383;PMS7003;65204;48.606;7.598;2023-07-30T00:24:41;0.00;0.00;0.00
76383;PMS7003;65204;48.606;7.598;2023-07-30T00:25:11;0.00;0.00;0.00
76383;PMS7003;65204;48.606;7.598;2023-07-30T00:25:42;0.50;0.50;0.00
76383;PMS7003;65204;48.606;7.598;2023-07-30T00:26:12;0.00;0.00;0.00
76383;PMS7003;65204;48.606;7.598;2023-07-30T00:26:42;0.00;0.00;0.00
76383;PMS7003;65204;48.606;7.598;2023-07-30T00:27:13;0.00;0.00;0.00
76383;PMS7003;65204;48.606;7.598;2023-07-30T00:27:43;1.50;0.25;0.25
76383;PMS7003;65204;48.606;7.598;2023-07-30T00:28:13;0.00;0.00;0.00
76383;PMS7003;65204;48.606;7.598;2023-07-30T00:28:44;0.50;0.50;0.50
76383;PMS7003;65204;48.606;7.598;2023-07-30T00:29:14;0.50;0.50;0.50
76383;PMS7003;65204;48.606;7.598;2023-07-30T00:29:44;0.00;0.00;0.00
76383;PMS7003;65204;48.606;7.598;2023-07-30T00:30:15;0.00;0.00;0.00
76383;PMS7003;65204;48.606;7.598;2023-07-30T00:30:46;0.25;0.25;0.00
76383;PMS7003;65204;48.606;7.598;2023-07-30T00:31:16;1.20;1.00;0.80
76383;PMS7003;65204;48.606;7.598;2023-07-30T00:31:46;1.25;0.25;0.25
76383;PMS7003;65204;48.606;7.598;2023-07-30T00:32:17;0.25;0.25;0.25
76383;PMS7003;65204;48.606;7.598;2023-07-30T00:32:47;0.25;0.25;0.00
76383;PMS7003;65204;48.606;7.598;2023-07-30T00:33:18;0.25;0.25;0.00
76383;PMS7003;65204;48.606;7.598;2023-07-30T00:33:48;0.50;0.50;0.50
76383;PMS7003;65204;48.606;7.598;2023-07-30T00:34:19;0.50;0.50;0.00
76383;PMS7003;65204;48.606;7.598;2023-07-30T00:34:49;0.50;0.50;0.00
76383;PMS7003;65204;48.606;7.598;2023-07-30T00:35:20;1.00;1.00;0.75
76383;PMS7003;65204;48.606;7.598;2023-07-30T00:35:51;1.00;1.00;1.00
76383;PMS7003;65204;48.606;7.598;2023-07-30T00:36:22;1.00;1.00;1.00
76383;PMS7003;65204;48.606;7.598;2023-07-30T00:36:53;1.00;1.00;1.00
76383;PMS7003;65204;48.606;7.598;2023-07-30T00:37:23;1.00;1.00;1.00
76383;PMS7003;65204;48.606;7.598;2023-07-30T00:37:54;1.00;1.00;0.00
76383;PMS7003;65204;48.606;7.598;2023-07-30T00:38:24;1.00;1.00;1.00
76383;PMS7003;65204;48.606;7.598;2023-07-30T00:38:55;0.50;0.50;0.50
76383;PMS7003;65204;48.606;7.598;2023-07-30T00:39:25;1.00;1.00;1.00
76383;PMS7003;65204;48.606;7.598;2023-07-30T00:39:55;2.75;1.00;0.25
76383;PMS7003;65204;48.606;7.598;2023-07-30T00:40:26;0.25;0.25;0.00
76383;PMS7003;65204;48.606;7.598;2023-07-30T00:40:56;1.25;1.25;1.00
76383;PMS7003;65204;48.606;7.598;2023-07-30T00:41:27;1.00;1.00;1.00
76383;PMS7003;65204;48.606;7.598;2023-07-30T00:41:57;0.00;0.00;0.00
76383;PMS7003;65204;48.606;7.598;2023-07-30T00:42:28;2.00;0.75;0.50
76383;PMS7003;65204;48.606;7.598;2023-07-30T00:42:58;1.00;1.00;1.00
76383;PMS7003;65204;48.606;7.598;2023-07-30T00:43:28;1.50;1.50;1.00
76383;PMS7003;65204;48.606;7.598;2023-07-30T00:43:59;1.00;1.00;1.00
76383;PMS7003;65204;48.606;7.598;2023-07-30T00:44:29;1.00;1.00;1.00
76383;PMS7003;65204;48.606;7.598;2023-07-30T00:44:59;3.00;1.00;0.50
76383;PMS7003;65204;48.606;7.598;2023-07-30T00:45:30;2.00;1.00;1.00
76383;PMS7003;65204;48.606;7.598;2023-07-30T00:46:00;1.25;1.00;0.75
76383;PMS7003;65204;48.606;7.598;2023-07-30T00:46:31;1.00;1.00;1.00
76383;PMS7003;65204;48.606;7.598;2023-07-30T00:47:01;0.75;0.75;0.75
76383;PMS7003;65204;48.606;7.598;2023-07-30T00:47:33;0.20;0.20;0.20
76383;PMS7003;65204;48.606;7.598;2023-07-30T00:48:03;0.00;0.00;0.00
76383;PMS7003;65204;48.606;7.598;2023-07-30T00:48:34;1.00;1.00;1.00
76383;PMS7003;65204;48.606;7.598;2023-07-30T00:49:05;1.00;1.00;1.00
76383;PMS7003;65204;48.606;7.598;2023-07-30T00:49:35;1.00;1.00;1.00
76383;PMS7003;65204;48.606;7.598;2023-07-30T00:50:06;0.00;0.00;0.00
76383;PMS7003;65204;48.606;7.598;2023-07-30T00:50:38;0.60;0.60;0.20
76383;PMS7003;65204;48.606;7.598;2023-07-30T00:51:09;1.00;1.00;1.00
76383;PMS7003;65204;48.606;7.598;2023-07-30T00:51:43;1.00;1.00;1.00
76383;PMS7003;65204;48.606;7.598;2023-07-30T00:52:14;0.50;0.50;0.00
76383;PMS7003;65204;48.606;7.598;2023-07-30T00:52:48;1.00;1.00;1.00
76383;PMS7003;65204;48.606;7.598;2023-07-30T00:53:18;1.00;1.00;0.50
76383;PMS7003;65204;48.606;7.598;2023-07-30T00:53:52;1.40;1.40;1.40
76383;PMS7003;65204;48.606;7.598;2023-07-30T00:54:23;1.00;1.00;1.00
76383;PMS7003;65204;48.606;7.598;2023-07-30T00:54:56;1.00;1.00;1.00
76383;PMS7003;65204;48.606;7.598;2023-07-30T00:55:27;1.00;1.00;1.00
76383;PMS7003;65204;48.606;7.598;2023-07-30T00:55:57;1.00;1.00;1.00
76383;PMS7003;65204;48.606;7.598;2023-07-30T00:56:28;1.25;1.25;0.75
76383;PMS7003;65204;48.606;7.598;2023-07-30T00:56:58;2.25;2.00;1.00
76383;PMS7003;65204;48.606;7.598;2023-07-30T00:57:29;1.25;1.25;1.00
76383;PMS7003;65204;48.606;7.598;2023-07-30T00:58:00;1.60;1.40;1.00
76383;PMS7003;65204;48.606;7.598;2023-07-30T00:58:32;1.80;1.80;1.00
76383;PMS7003;65204;48.606;7.598;2023-07-30T00:59:03;1.00;1.00;1.00
76383;PMS7003;65204;48.606;7.598;2023-07-30T00:59:33;1.00;1.00;1.00
76383;PMS7003;65204;48.606;7.598;2023-07-30T01:00:04;2.25;1.75;1.00
76383;PMS7003;65204;48.606;7.598;2023-07-30T01:00:37;1.00;1.00;1.00
76383;PMS7003;65204;48.606;7.598;2023-07-30T01:01:07;1.50;1.50;1.50
76383;PMS7003;65204;48.606;7.598;2023-07-30T01:01:38;2.00;2.00;1.00
76383;PMS7003;65204;48.606;7.598;2023-07-30T01:02:12;1.00;1.00;1.00
76383;PMS7003;65204;48.606;7.598;2023-07-30T01:02:43;1.00;1.00;1.00
76383;PMS7003;65204;48.606;7.598;2023-07-30T01:03:14;2.25;2.00;1.75
76383;PMS7003;65204;48.606;7.598;2023-07-30T01:03:44;3.00;2.00;1.00
76383;PMS7003;65204;48.606;7.598;2023-07-30T01:04:15;1.00;1.00;1.00
76383;PMS7003;65204;48.606;7.598;2023-07-30T01:04:45;2.00;2.00;2.00
76383;PMS7003;65204;48.606;7.598;2023-07-30T01:05:16;2.00;2.00;1.00
76383;PMS7003;65204;48.606;7.598;2023-07-30T01:05:46;1.50;1.50;1.00
76383;PMS7003;65204;48.606;7.598;2023-07-30T01:06:17;2.00;2.00;2.00
76383;PMS7003;65204;48.606;7.598;2023-07-30T01:06:49;2.00;2.00;2.00
76383;PMS7003;65204;48.606;7.598;2023-07-30T01:07:20;1.25;1.25;1.00
76383;PMS7003;65204;48.606;7.598;2023-07-30T01:07:50;1.00;1.00;1.00
76383;PMS7003;65204;48.606;7.598;2023-07-30T01:08:20;2.50;1.25;1.25
76383;PMS7003;65204;48.606;7.598;2023-07-30T01:08:51;3.00;3.00;2.50
76383;PMS7003;65204;48.606;7.598;2023-07-30T01:09:21;2.25;2.25;2.00
76383;PMS7003;65204;48.606;7.598;2023-07-30T01:09:52;1.00;1.00;0.20
76383;PMS7003;65204;48.606;7.598;2023-07-30T01:10:23;1.25;1.25;1.00
76383;PMS7003;65204;48.606;7.598;2023-07-30T01:10:54;2.00;2.00;1.40
76383;PMS7003;65204;48.606;7.598;2023-07-30T01:11:26;1.00;1.00;1.00
76383;PMS7003;65204;48.606;7.598;2023-07-30T01:11:56;2.00;2.00;1.25
76383;PMS7003;65204;48.606;7.598;2023-07-30T01:12:28;2.00;2.00;2.00
76383;PMS7003;65204;48.606;7.598;2023-07-30T01:13:01;3.00;2.00;2.00
76383;PMS7003;65204;48.606;7.598;2023-07-30T01:13:33;2.00;1.00;1.00
76383;PMS7003;65204;48.606;7.598;2023-07-30T01:14:05;2.20;2.20;2.00
76383;PMS7003;65204;48.606;7.598;2023-07-30T01:14:36;1.20;1.20;1.00
76383;PMS7003;65204;48.606;7.598;2023-07-30T01:15:08;2.00;2.00;1.80
76383;PMS7003;65204;48.606;7.598;2023-07-30T01:15:39;2.00;2.00;1.20
76383;PMS7003;65204;48.606;7.598;2023-07-30T01:16:11;2.00;2.00;1.80
76383;PMS7003;65204;48.606;7.598;2023-07-30T01:16:41;3.00;3.00;3.00
76383;PMS7003;65204;48.606;7.598;2023-07-30T01:17:12;2.00;2.00;2.00
76383;PMS7003;65204;48.606;7.598;2023-07-30T01:17:42;2.25;2.25;1.50
76383;PMS7003;65204;48.606;7.598;2023-07-30T01:18:13;2.50;2.50;2.25
76383;PMS7003;65204;48.606;7.598;2023-07-30T01:18:43;3.75;2.75;2.00
76383;PMS7003;65204;48.606;7.598;2023-07-30T01:19:14;3.00;3.00;3.00
76383;PMS7003;65204;48.606;7.598;2023-07-30T01:19:44;4.75;3.00;3.00
76383;PMS7003;65204;48.606;7.598;2023-07-30T01:20:15;3.00;3.00;2.00
76383;PMS7003;65204;48.606;7.598;2023-07-30T01:20:45;4.00;4.00;3.00
76383;PMS7003;65204;48.606;7.598;2023-07-30T01:21:15;2.75;2.75;2.00
76383;PMS7003;65204;48.606;7.598;2023-07-30T01:21:46;4.25;4.25;3.00
76383;PMS7003;65204;48.606;7.598;2023-07-30T01:22:16;2.50;1.50;1.50
76383;PMS7003;65204;48.606;7.598;2023-07-30T01:22:46;3.00;3.00;2.50
76383;PMS7003;65204;48.606;7.598;2023-07-30T01:23:17;4.60;4.60;4.00
76383;PMS7003;65204;48.606;7.598;2023-07-30T01:23:47;3.25;3.25;2.00
76383;PMS7003;65204;48.606;7.598;2023-07-30T01:24:18;2.75;2.75;2.50
76383;PMS7003;65204;48.606;7.598;2023-07-30T01:24:48;3.00;3.00;2.25
76383;PMS7003;65204;48.606;7.598;2023-07-30T01:25:19;3.00;2.00;1.80
76383;PMS7003;65204;48.606;7.598;2023-07-30T01:25:59;3.00;3.00;2.40
76383;PMS7003;65204;48.606;7.598;2023-07-30T01:26:37;3.60;3.60;2.00
76383;PMS7003;65204;48.606;7.598;2023-07-30T01:27:14;3.00;3.00;2.20
76383;PMS7003;65204;48.606;7.598;2023-07-30T01:27:50;2.20;2.20;2.00
76383;PMS7003;65204;48.606;7.598;2023-07-30T01:28:24;3.20;3.20;2.80
76383;PMS7003;65204;48.606;7.598;2023-07-30T01:28:58;4.00;3.80;3.00
76383;PMS7003;65204;48.606;7.598;2023-07-30T01:30:25;4.60;3.60;3.00
76383;PMS7003;65204;48.606;7.598;2023-07-30T01:30:59;2.20;1.00;1.00
76383;PMS7003;65204;48.606;7.598;2023-07-30T01:31:32;5.00;4.00;3.00
76383;PMS7003;65204;48.606;7.598;2023-07-30T01:32:04;3.00;3.00;2.00
76383;PMS7003;65204;48.606;7.598;2023-07-30T01:32:37;4.00;4.00;3.60
76383;PMS7003;65204;48.606;7.598;2023-07-30T01:33:10;3.80;3.80;3.00
76383;PMS7003;65204;48.606;7.598;2023-07-30T01:33:41;3.40;3.00;2.00
76383;PMS7003;65204;48.606;7.598;2023-07-30T01:34:12;4.75;4.00;3.00
76383;PMS7003;65204;48.606;7.598;2023-07-30T01:34:43;4.00;4.00;3.00
76383;PMS7003;65204;48.606;7.598;2023-07-30T01:35:16;4.00;3.80;3.00
76383;PMS7003;65204;48.606;7.598;2023-07-30T01:35:50;4.00;3.40;3.40
76383;PMS7003;65204;48.606;7.598;2023-07-30T01:36:21;4.00;4.00;4.00
76383;PMS7003;65204;48.606;7.598;2023-07-30T01:36:51;5.00;3.75;3.00
76383;PMS7003;65204;48.606;7.598;2023-07-30T01:37:23;4.80;4.80;4.00
76383;PMS7003;65204;48.606;7.598;2023-07-30T01:37:55;2.80;2.80;2.40
76383;PMS7003;65204;48.606;7.598;2023-07-30T01:38:26;3.00;2.75;2.75
76383;PMS7003;65204;48.606;7.598;2023-07-30T01:38:57;5.25;4.25;4.00
76383;PMS7003;65204;48.606;7.598;2023-07-30T01:39:29;5.20;4.00;3.20
76383;PMS7003;65204;48.606;7.598;2023-07-30T01:40:00;4.00;4.00;3.00
76383;PMS7003;65204;48.606;7.598;2023-07-30T01:40:32;4.00;3.75;3.25
76383;PMS7003;65204;48.606;7.598;2023-07-30T01:41:02;3.00;3.00;2.80
76383;PMS7003;65204;48.606;7.598;2023-07-30T01:41:33;3.00;3.00;3.00
76383;PMS7003;65204;48.606;7.598;2023-07-30T01:42:03;3.75;3.75;3.00
76383;PMS7003;65204;48.606;7.598;2023-07-30T01:42:34;2.00;2.00;2.00
76383;PMS7003;65204;48.606;7.598;2023-07-30T01:43:04;4.00;3.00;3.00
76383;PMS7003;65204;48.606;7.598;2023-07-30T01:43:35;3.25;3.25;3.00
76383;PMS7003;65204;48.606;7.598;2023-07-30T01:44:05;3.00;3.00;3.00
76383;PMS7003;65204;48.606;7.598;2023-07-30T01:44:35;3.75;3.00;3.00
76383;PMS7003;65204;48.606;7.598;2023-07-30T01:45:06;5.00;3.75;3.00
76383;PMS7003;65204;48.606;7.598;2023-07-30T01:45:37;3.75;3.75;2.25
76383;PMS7003;65204;48.606;7.598;2023-07-30T01:46:07;4.00;3.00;3.00
76383;PMS7003;65204;48.606;7.598;2023-07-30T01:46:37;4.00;4.00;3.00
76383;PMS7003;65204;48.606;7.598;2023-07-30T01:47:08;4.00;4.00;3.00
76383;PMS7003;65204;48.606;7.598;2023-07-30T01:47:38;4.00;4.00;3.75
76383;PMS7003;65204;48.606;7.598;2023-07-30T01:48:09;2.50;2.50;2.25
76383;PMS7003;65204;48.606;7.598;2023-07-30T01:48:39;3.25;3.25;2.25
76383;PMS7003;65204;48.606;7.598;2023-07-30T01:49:09;4.75;4.00;3.50
76383;PMS7003;65204;48.606;7.598;2023-07-30T01:49:40;3.00;3.00;2.25
76383;PMS7003;65204;48.606;7.598;2023-07-30T01:50:10;2.50;2.50;2.25
76383;PMS7003;65204;48.606;7.598;2023-07-30T01:50:40;3.00;3.00;2.50
76383;PMS7003;65204;48.606;7.598;2023-07-30T01:51:11;3.00;3.00;2.25
76383;PMS7003;65204;48.606;7.598;2023-07-30T01:51:41;3.25;3.25;3.00
76383;PMS7003;65204;48.606;7.598;2023-07-30T01:52:11;3.00;3.00;2.75
76383;PMS7003;65204;48.606;7.598;2023-07-30T01:52:42;3.00;3.00;2.75
76383;PMS7003;65204;48.606;7.598;2023-07-30T01:53:12;3.00;3.00;3.00
76383;PMS7003;65204;48.606;7.598;2023-07-30T01:53:42;5.00;3.50;3.25
76383;PMS7003;65204;48.606;7.598;2023-07-30T01:54:12;3.25;3.25;3.00
76383;PMS7003;65204;48.606;7.598;2023-07-30T01:54:43;2.00;2.00;2.00
76383;PMS7003;65204;48.606;7.598;2023-07-30T01:55:13;5.00;3.00;2.50
76383;PMS7003;65204;48.606;7.598;2023-07-30T01:55:44;3.00;3.00;3.00
76383;PMS7003;65204;48.606;7.598;2023-07-30T01:56:16;4.00;4.00;3.00
76383;PMS7003;65204;48.606;7.598;2023-07-30T01:56:46;4.25;4.25;3.75
76383;PMS7003;65204;48.606;7.598;2023-07-30T01:57:16;3.00;3.00;3.00
76383;PMS7003;65204;48.606;7.598;2023-07-30T01:57:47;3.50;3.00;3.00
76383;PMS7003;65204;48.606;7.598;2023-07-30T01:58:17;3.00;3.00;2.25
76383;PMS7003;65204;48.606;7.598;2023-07-30T01:58:48;3.00;3.00;3.00
76383;PMS7003;65204;48.606;7.598;2023-07-30T01:59:18;3.00;3.00;1.50
76383;PMS7003;65204;48.606;7.598;2023-07-30T01:59:49;3.25;2.50;2.00
76383;PMS7003;65204;48.606;7.598;2023-07-30T02:00:19;5.00;3.50;3.25
76383;PMS7003;65204;48.606;7.598;2023-07-30T02:00:49;4.00;2.25;2.25
76383;PMS7003;65204;48.606;7.598;2023-07-30T02:01:19;2.75;2.75;2.25
76383;PMS7003;65204;48.606;7.598;2023-07-30T02:01:50;3.00;3.00;2.25
76383;PMS7003;65204;48.606;7.598;2023-07-30T02:02:20;3.00;3.00;2.75
76383;PMS7003;65204;48.606;7.598;2023-07-30T02:02:50;3.25;3.00;2.50
76383;PMS7003;65204;48.606;7.598;2023-07-30T02:03:21;3.00;3.00;2.00
76383;PMS7003;65204;48.606;7.598;2023-07-30T02:03:51;2.25;2.25;2.25
76383;PMS7003;65204;48.606;7.598;2023-07-30T02:04:21;3.25;3.25;2.75
76383;PMS7003;65204;48.606;7.598;2023-07-30T02:04:52;3.00;3.00;2.50
76383;PMS7003;65204;48.606;7.598;2023-07-30T02:05:22;5.75;4.25;3.25
76383;PMS7003;65204;48.606;7.598;2023-07-30T02:05:54;3.00;3.00;2.80
76383;PMS7003;65204;48.606;7.598;2023-07-30T02:06:24;3.00;3.00;3.00
76383;PMS7003;65204;48.606;7.598;2023-07-30T02:06:54;4.00;4.00;3.50
76383;PMS7003;65204;48.606;7.598;2023-07-30T02:07:24;0.00;0.00;0.00
76383;PMS7003;65204;48.606;7.598;2023-07-30T02:07:55;3.25;3.25;3.00
76383;PMS7003;65204;48.606;7.598;2023-07-30T02:08:25;2.00;2.00;2.00
76383;PMS7003;65204;48.606;7.598;2023-07-30T02:08:55;3.00;3.00;3.00
76383;PMS7003;65204;48.606;7.598;2023-07-30T02:09:26;3.50;3.50;2.50
76383;PMS7003;65204;48.606;7.598;2023-07-30T02:09:56;2.00;2.00;2.00
76383;PMS7003;65204;48.606;7.598;2023-07-30T02:10:26;3.00;3.00;3.00
76383;PMS7003;65204;48.606;7.598;2023-07-30T02:10:58;2.75;2.75;2.50
76383;PMS7003;65204;48.606;7.598;2023-07-30T02:11:29;2.80;2.80;2.60
76383;PMS7003;65204;48.606;7.598;2023-07-30T02:11:59;2.00;2.00;1.25
76383;PMS7003;65204;48.606;7.598;2023-07-30T02:12:29;3.25;1.75;1.75
76383;PMS7003;65204;48.606;7.598;2023-07-30T02:12:59;3.25;3.25;2.75
76383;PMS7003;65204;48.606;7.598;2023-07-30T02:13:30;2.00;2.00;1.75
76383;PMS7003;65204;48.606;7.598;2023-07-30T02:14:00;3.00;3.00;2.75
76383;PMS7003;65204;48.606;7.598;2023-07-30T02:14:30;4.00;4.00;3.00
76383;PMS7003;65204;48.606;7.598;2023-07-30T02:15:01;3.00;3.00;2.00
76383;PMS7003;65204;48.606;7.598;2023-07-30T02:15:31;2.25;2.25;2.00
76383;PMS7003;65204;48.606;7.598;2023-07-30T02:16:01;3.00;3.00;2.00
76383;PMS7003;65204;48.606;7.598;2023-07-30T02:16:32;2.50;2.50;2.00
76383;PMS7003;65204;48.606;7.598;2023-07-30T02:17:02;3.50;3.50;2.50
76383;PMS7003;65204;48.606;7.598;2023-07-30T02:17:33;3.25;2.25;2.00
76383;PMS7003;65204;48.606;7.598;2023-07-30T02:18:03;2.75;2.75;2.25
76383;PMS7003;65204;48.606;7.598;2023-07-30T02:18:33;2.25;2.25;2.00
76383;PMS7003;65204;48.606;7.598;2023-07-30T02:19:04;2.50;2.50;2.00
76383;PMS7003;65204;48.606;7.598;2023-07-30T02:19:34;3.00;3.00;3.00
76383;PMS7003;65204;48.606;7.598;2023-07-30T02:20:05;3.00;3.00;3.00
76383;PMS7003;65204;48.606;7.598;2023-07-30T02:20:36;2.60;2.60;2.00
76383;PMS7003;65204;48.606;7.598;2023-07-30T02:21:06;2.25;2.25;2.00
76383;PMS7003;65204;48.606;7.598;2023-07-30T02:21:37;4.50;3.00;2.75
76383;PMS7003;65204;48.606;7.598;2023-07-30T02:22:12;4.80;3.20;2.20
76383;PMS7003;65204;48.606;7.598;2023-07-30T02:22:42;3.50;3.25;3.25
76383;PMS7003;65204;48.606;7.598;2023-07-30T02:23:15;3.00;2.00;2.00
76383;PMS7003;65204;48.606;7.598;2023-07-30T02:23:46;3.20;2.80;2.00
76383;PMS7003;65204;48.606;7.598;2023-07-30T02:24:16;2.25;1.25;1.25
76383;PMS7003;65204;48.606;7.598;2023-07-30T02:24:47;2.00;2.00;1.50
76383;PMS7003;65204;48.606;7.598;2023-07-30T02:25:17;3.00;3.00;2.00
76383;PMS7003;65204;48.606;7.598;2023-07-30T02:25:48;2.75;2.75;2.00
76383;PMS7003;65204;48.606;7.598;2023-07-30T02:26:18;3.00;3.00;3.00
76383;PMS7003;65204;48.606;7.598;2023-07-30T02:26:48;2.75;2.75;2.25
76383;PMS7003;65204;48.606;7.598;2023-07-30T02:27:19;1.25;1.25;1.00
76383;PMS7003;65204;48.606;7.598;2023-07-30T02:27:49;2.25;2.25;1.50
76383;PMS7003;65204;48.606;7.598;2023-07-30T02:28:19;3.00;3.00;3.00
76383;PMS7003;65204;48.606;7.598;2023-07-30T02:28:49;2.00;2.00;2.00
76383;PMS7003;65204;48.606;7.598;2023-07-30T02:29:20;3.25;3.25;3.00
76383;PMS7003;65204;48.606;7.598;2023-07-30T02:29:50;2.00;2.00;2.00
76383;PMS7003;65204;48.606;7.598;2023-07-30T02:30:20;4.00;2.00;2.00
76383;PMS7003;65204;48.606;7.598;2023-07-30T02:30:51;2.25;2.25;2.00
76383;PMS7003;65204;48.606;7.598;2023-07-30T02:31:21;5.00;3.25;3.00
76383;PMS7003;65204;48.606;7.598;2023-07-30T02:31:51;3.00;3.00;3.00
76383;PMS7003;65204;48.606;7.598;2023-07-30T02:32:22;2.00;2.00;2.00
76383;PMS7003;65204;48.606;7.598;2023-07-30T02:32:52;2.50;2.50;2.25
76383;PMS7003;65204;48.606;7.598;2023-07-30T02:33:22;2.00;2.00;2.00
76383;PMS7003;65204;48.606;7.598;2023-07-30T02:33:53;3.00;2.25;2.00
76383;PMS7003;65204;48.606;7.598;2023-07-30T02:34:23;3.00;3.00;2.25
76383;PMS7003;65204;48.606;7.598;2023-07-30T02:34:53;2.50;2.00;2.00
76383;PMS7003;65204;48.606;7.598;2023-07-30T02:35:24;1.00;1.00;1.00
76383;PMS7003;65204;48.606;7.598;2023-07-30T02:35:54;2.00;2.00;1.50
76383;PMS7003;65204;48.606;7.598;2023-07-30T02:36:24;2.00;2.00;2.00
76383;PMS7003;65204;48.606;7.598;2023-07-30T02:36:54;3.50;2.00;2.00
76383;PMS7003;65204;48.606;7.598;2023-07-30T02:37:25;2.00;2.00;1.50
76383;PMS7003;65204;48.606;7.598;2023-07-30T02:37:55;3.50;2.50;2.00
76383;PMS7003;65204;48.606;7.598;2023-07-30T02:38:25;2.75;2.75;2.00
76383;PMS7003;65204;48.606;7.598;2023-07-30T02:38:56;2.25;2.25;2.00
76383;PMS7003;65204;48.606;7.598;2023-07-30T02:39:26;2.00;2.00;1.75
76383;PMS7003;65204;48.606;7.598;2023-07-30T02:39:56;2.25;2.25;2.00
76383;PMS7003;65204;48.606;7.598;2023-07-30T02:40:27;3.00;3.00;3.00
76383;PMS7003;65204;48.606;7.598;2023-07-30T02:40:57;2.00;2.00;2.00
76383;PMS7003;65204;48.606;7.598;2023-07-30T02:41:27;3.00;2.00;2.00
76383;PMS7003;65204;48.606;7.598;2023-07-30T02:41:58;3.25;2.00;2.00
76383;PMS7003;65204;48.606;7.598;2023-07-30T02:42:28;1.25;1.25;1.25
76383;PMS7003;65204;48.606;7.598;2023-07-30T02:42:58;2.00;2.00;2.00
76383;PMS7003;65204;48.606;7.598;2023-07-30T02:43:29;1.75;1.75;1.75
76383;PMS7003;65204;48.606;7.598;2023-07-30T02:43:59;4.00;3.00;3.00
76383;PMS7003;65204;48.606;7.598;2023-07-30T02:44:29;3.00;1.00;1.00
76383;PMS7003;65204;48.606;7.598;2023-07-30T02:45:00;2.00;2.00;2.00
76383;PMS7003;65204;48.606;7.598;2023-07-30T02:45:30;3.50;1.25;1.25
76383;PMS7003;65204;48.606;7.598;2023-07-30T02:46:00;4.25;2.00;2.00
76383;PMS7003;65204;48.606;7.598;2023-07-30T02:46:30;1.75;1.75;1.25
76383;PMS7003;65204;48.606;7.598;2023-07-30T02:47:01;3.50;3.00;1.50
76383;PMS7003;65204;48.606;7.598;2023-07-30T02:47:31;1.00;1.00;1.00
76383;PMS7003;65204;48.606;7.598;2023-07-30T02:48:01;1.00;1.00;1.00
76383;PMS7003;65204;48.606;7.598;2023-07-30T02:48:32;2.00;2.00;1.50
76383;PMS7003;65204;48.606;7.598;2023-07-30T02:49:03;3.00;2.00;2.00
76383;PMS7003;65204;48.606;7.598;2023-07-30T02:49:33;3.00;2.00;1.25
76383;PMS7003;65204;48.606;7.598;2023-07-30T02:50:04;2.50;2.50;1.75
76383;PMS7003;65204;48.606;7.598;2023-07-30T02:50:35;1.60;1.60;1.40
76383;PMS7003;65204;48.606;7.598;2023-07-30T02:51:05;1.25;1.25;1.25
76383;PMS7003;65204;48.606;7.598;2023-07-30T02:51:35;3.00;3.00;2.50
76383;PMS7003;65204;48.606;7.598;2023-07-30T02:52:06;2.25;2.25;2.25
76383;PMS7003;65204;48.606;7.598;2023-07-30T02:52:36;1.50;1.50;1.00
76383;PMS7003;65204;48.606;7.598;2023-07-30T02:53:06;2.00;2.00;2.00
76383;PMS7003;65204;48.606;7.598;2023-07-30T02:53:37;2.25;2.00;2.00
76383;PMS7003;65204;48.606;7.598;2023-07-30T02:54:07;1.00;1.00;1.00
76383;PMS7003;65204;48.606;7.598;2023-07-30T02:54:37;1.50;1.50;1.00
76383;PMS7003;65204;48.606;7.598;2023-07-30T02:55:08;2.00;2.00;2.00
76383;PMS7003;65204;48.606;7.598;2023-07-30T02:55:38;3.00;2.00;2.00
76383;PMS7003;65204;48.606;7.598;2023-07-30T02:56:09;1.50;1.50;1.00
76383;PMS7003;65204;48.606;7.598;2023-07-30T02:56:39;2.00;2.00;2.00
76383;PMS7003;65204;48.606;7.598;2023-07-30T02:57:09;2.00;2.00;2.00
76383;PMS7003;65204;48.606;7.598;2023-07-30T02:57:41;2.00;2.00;2.00
76383;PMS7003;65204;48.606;7.598;2023-07-30T02:58:11;1.75;1.75;1.50
76383;PMS7003;65204;48.606;7.598;2023-07-30T02:58:41;1.00;1.00;1.00
76383;PMS7003;65204;48.606;7.598;2023-07-30T02:59:12;2.00;2.00;1.75
76383;PMS7003;65204;48.606;7.598;2023-07-30T02:59:42;2.50;2.50;2.00
76383;PMS7003;65204;48.606;7.598;2023-07-30T03:00:12;1.50;1.50;1.50
76383;PMS7003;65204;48.606;7.598;2023-07-30T03:00:43;2.00;2.00;2.00
76383;PMS7003;65204;48.606;7.598;2023-07-30T03:01:13;3.25;2.00;1.75